Airfield :
LOGIN :

Register | Disclaimer

   EN    FR    IT 

 










Legend :    VFR   Marginal VFR   IFR   Intensive IFR   Very Intensive IFR
Visi :
Ceiling :
>= 8 km
>= 3000ft
5 to 8 km
1000 to 3000 ft
1500m to 5 km
500 to 1000 ft
800 to 1500m
200 to 500 ft
< 800m
< 200 ft
Symbols :   Thunderstorms  Fog  Heavy snow  Heavy precipitations  Wind > 20 kt
SIGMETs :     Misc.  Thunderstorms  Icing  Turbulence  Mountain Waves  Volcanic Ashes






- Airport Elevation : 1273 ft
- IATA code : LJU


LJLJ - Ljubljana

CURRENT METAR :
  • 270730Z 29004KT 260V330 8000 -RA SCT003 BKN050 00/00 Q0994 NOSIG

EXPIRED METARs :
  • 270700Z VRB02KT 8000 -RA SCT003 BKN023 BKN070 00/00 Q0994 NOSIG
  • 270630Z VRB02KT 5000 -RASN BR SCT003 OVC017 00/00 Q0995 NOSIG
  • 270600Z VRB02KT 5000 -RASN BR SCT003 OVC017 00/00 Q0994 NOSIG
  • 270530Z VRB02KT 5000 -SN BR SCT003 OVC016 00/00 Q0995 NOSIG
  • 270500Z VRB02KT 3500 -SN BR SCT002 OVC016 00/00 Q0994 RESN NOSIG

TAF TAF LJLJ
Valid from the 27 at 06:00 until the 28 at 06:00 UTC


270500Z 2706/2806 09004KT 7000 -RA SCT010 OVC035
TEMPO 2706/2709 3500 RASN BR BKN010 OVC020
PROB30
TEMPO 2706/2707 2000 SNRA BR BKN003 OVC010
BECMG 2715/2718 NSW
TEMPO 2718/2803 3500 RA BR



MET'MAP, your aeronautical weather chart ! - Copyright ORBIFLY December 2007 - Disclaimer

ORBIFLY MET'MAP TEAM :

Programming & Development : Alexandra Zaïnal
Concept & original design : Baudouin d'Aumeries
Assistance for programming : Marc-Olivier Méhu
Technical & hardware support : Manuel Goepfert

Contact : metmap@orbifly.com




SOURCES & CREDITS :

   NOAA